Decoded Metar for CYLH (LANSDOWNE HOUSE in ON, CANADA) (IATA:N/A) | Meteo·Mobile Aviation Weather
aviador You're here:

CYLH Decoded Metar

LANSDOWNE HOUSE in ON, CANADA
Report Time2019-04-25 22:00:00
UTC Time2019-04-25 22:34:01
Flight Rules vfr VFR
WindVRB at 07 kt
Visibility9999 m
Phenomena:N/A
Clouds:Broken 049 Hf
Expected CloudBase > 4,800 ft AGL from Temp-Dew spread
Ceiling4,900 ft
Temp09°C (ISA -4)
Dew Point-3°C (43% RH)
AAT4.1°C
QNH1006 hPa
Density Alt623 ft
Elevation833 ft
Report Wrong Elevation
Raw Report
METAR CYLH 252200Z AUTO VRB07KT 9SM BKN049 09/M03 A2971 RMK SLP073=

Extra information for CYLH:More info

Metar Taf Metar & Taf Last 4 Metars F.Rules Stats Wind Profile Meteogram Temp Stats Airport Information Weather charts Add Link Nearby VenuesMetar ALERT Operation Metar Decoded Social comments